createdAt,value
2022-11-17T00:00:25.900Z,6.40
2022-11-17T00:05:27.911Z,6.40
2022-11-17T00:10:29.533Z,6.20
2022-11-17T00:15:31.196Z,6.40
2022-11-17T00:20:51.517Z,5.18
2022-11-17T00:25:53.117Z,7.07
2022-11-17T00:31:13.120Z,6.97
2022-11-17T00:36:15.015Z,7.78
2022-11-17T00:41:16.631Z,5.75
2022-11-17T00:46:18.213Z,6.13
2022-11-17T00:51:20.146Z,5.10
2022-11-17T00:56:22.081Z,4.32
2022-11-17T01:01:24.507Z,5.70
2022-11-17T01:06:26.304Z,5.25
2022-11-17T01:11:28.488Z,5.72
2022-11-17T01:16:31.364Z,4.88
2022-11-17T01:21:33.009Z,3.40
2022-11-17T01:26:36.392Z,4.22
2022-11-17T01:31:41.161Z,2.95
2022-11-17T01:37:02.244Z,4.28
2022-11-17T01:42:19.304Z,3.83
2022-11-17T01:47:26.345Z,4.15
2022-11-17T01:52:28.634Z,3.03
2022-11-17T01:57:36.976Z,2.65
2022-11-17T02:02:39.727Z,3.90
2022-11-17T02:07:42.645Z,3.72
2022-11-17T02:12:45.050Z,3.33
2022-11-17T02:17:46.869Z,4.45
2022-11-17T02:23:16.539Z,4.25
2022-11-17T02:28:28.206Z,2.88
2022-11-17T02:34:11.413Z,2.47
2022-11-17T02:39:41.627Z,3.17
2022-11-17T02:44:55.987Z,2.42
2022-11-17T02:50:01.868Z,2.65
2022-11-17T02:55:06.929Z,2.67
2022-11-17T03:00:19.573Z,2.03
2022-11-17T03:05:51.993Z,2.83
2022-11-17T03:11:02.898Z,4.07
2022-11-17T03:16:16.630Z,3.35
2022-11-17T03:21:22.305Z,3.05
2022-11-17T03:26:29.484Z,3.10
2022-11-17T03:31:31.551Z,2.70
2022-11-17T03:36:35.747Z,2.58
2022-11-17T03:41:42.347Z,4.30
2022-11-17T03:46:44.701Z,4.70
2022-11-17T03:51:46.604Z,5.25
2022-11-17T03:56:59.405Z,3.83
2022-11-17T04:02:01.058Z,3.63
2022-11-17T04:07:02.764Z,3.65
2022-11-17T04:12:23.209Z,3.88
2022-11-17T04:17:24.835Z,5.78
2022-11-17T04:22:26.532Z,4.13
2022-11-17T04:27:46.743Z,4.50
2022-11-17T04:32:48.509Z,6.13
2022-11-17T04:37:50.164Z,3.42
2022-11-17T04:42:51.765Z,4.20
2022-11-17T04:47:53.426Z,4.18
2022-11-17T04:52:55.022Z,3.95
2022-11-17T04:57:56.662Z,4.63
2022-11-17T05:02:58.341Z,4.90
2022-11-17T05:08:00.089Z,5.88
2022-11-17T05:13:20.420Z,4.13
2022-11-17T05:18:21.995Z,4.28
2022-11-17T05:23:42.303Z,5.05
2022-11-17T05:28:43.951Z,3.85
2022-11-17T05:33:45.615Z,4.70
2022-11-17T05:38:48.450Z,4.75
2022-11-17T05:43:50.579Z,4.57
2022-11-17T05:48:53.124Z,4.97
2022-11-17T05:53:54.782Z,4.05
2022-11-17T05:59:27.873Z,4.90
2022-11-17T06:04:30.633Z,3.55
2022-11-17T06:09:34.292Z,3.55
2022-11-17T06:14:37.803Z,4.47
2022-11-17T06:19:42.622Z,3.63
2022-11-17T06:24:44.955Z,5.30
2022-11-17T06:29:47.120Z,3.20
2022-11-17T06:34:55.179Z,3.20
2022-11-17T06:39:57.853Z,3.55
2022-11-17T06:44:59.487Z,3.90
2022-11-17T06:50:01.166Z,4.15
2022-11-17T06:55:02.945Z,5.95
2022-11-17T07:00:06.275Z,3.22
2022-11-17T07:05:08.248Z,3.42
2022-11-17T07:10:10.291Z,3.90
2022-11-17T07:15:11.917Z,2.95
2022-11-17T07:20:13.978Z,3.33
2022-11-17T07:25:21.064Z,3.92
2022-11-17T07:30:23.998Z,3.97
2022-11-17T07:35:25.683Z,4.68
2022-11-17T07:40:30.739Z,4.28
2022-11-17T07:45:32.564Z,3.38
2022-11-17T07:50:35.044Z,4.97
2022-11-17T07:55:36.651Z,4.55
2022-11-17T08:00:38.448Z,3.33
2022-11-17T08:05:43.703Z,5.63
2022-11-17T08:10:45.652Z,3.65
2022-11-17T08:15:47.329Z,5.13
2022-11-17T08:20:49.083Z,4.05
2022-11-17T08:25:50.742Z,4.45
2022-11-17T08:30:52.345Z,3.95
2022-11-17T08:35:58.253Z,4.75
2022-11-17T08:41:02.968Z,4.13
2022-11-17T08:46:04.880Z,4.22
2022-11-17T08:51:08.161Z,4.35
2022-11-17T08:56:11.659Z,3.65
2022-11-17T09:01:18.347Z,4.05
2022-11-17T09:06:20.227Z,4.53
2022-11-17T09:11:22.107Z,3.22
2022-11-17T09:16:25.416Z,5.78
2022-11-17T09:21:27.346Z,3.88
2022-11-17T09:26:28.981Z,5.20
2022-11-17T09:31:30.908Z,4.10
2022-11-17T09:36:33.093Z,5.43
2022-11-17T09:41:41.471Z,4.63
2022-11-17T09:46:54.997Z,4.93
2022-11-17T09:51:58.550Z,4.57
2022-11-17T09:57:01.012Z,4.05
2022-11-17T10:02:02.836Z,5.15
2022-11-17T10:07:04.749Z,7.53
2022-11-17T10:12:27.763Z,5.32
2022-11-17T10:17:29.603Z,4.45
2022-11-17T10:22:36.285Z,4.45
2022-11-17T10:27:44.258Z,6.03
2022-11-17T10:32:57.167Z,5.43
2022-11-17T10:38:00.768Z,3.95
2022-11-17T10:43:14.585Z,5.38
2022-11-17T10:48:25.012Z,4.65
2022-11-17T10:53:30.280Z,6.40
2022-11-17T10:58:33.612Z,4.72
2022-11-17T11:03:36.092Z,7.25
2022-11-17T11:08:56.363Z,3.85
2022-11-17T11:14:01.408Z,5.22
2022-11-17T11:19:03.100Z,4.82
2022-11-17T11:24:07.707Z,5.38
2022-11-17T11:29:23.129Z,4.13
2022-11-17T11:34:52.964Z,5.25
2022-11-17T11:40:15.588Z,4.97
2022-11-17T11:45:43.348Z,4.97
2022-11-17T11:50:58.240Z,5.97
2022-11-17T11:56:10.785Z,6.13
2022-11-17T12:01:13.417Z,7.07
2022-11-17T12:06:36.795Z,4.88
2022-11-17T12:11:59.090Z,3.67
2022-11-17T12:17:23.387Z,4.75
2022-11-17T12:22:33.911Z,4.60
2022-11-17T12:27:35.613Z,6.53
2022-11-17T12:32:49.159Z,4.95
2022-11-17T12:38:23.220Z,6.60
2022-11-17T12:43:26.510Z,7.10
2022-11-17T12:48:36.229Z,7.63
2022-11-17T12:53:39.453Z,7.07
2022-11-17T12:58:59.959Z,6.22
2022-11-17T13:04:01.604Z,6.32
2022-11-17T13:09:11.999Z,6.10
2022-11-17T13:14:16.204Z,7.25
2022-11-17T13:19:30.390Z,6.82
2022-11-17T13:24:35.251Z,7.03
2022-11-17T13:29:37.838Z,6.45
2022-11-17T13:34:49.834Z,6.13
2022-11-17T13:40:02.558Z,7.70
2022-11-17T13:45:05.270Z,7.70
2022-11-17T13:50:31.882Z,7.05
2022-11-17T13:55:34.107Z,7.38
2022-11-17T14:00:35.870Z,7.28
2022-11-17T14:05:37.471Z,6.32
2022-11-17T14:10:39.735Z,6.85
2022-11-17T14:15:42.295Z,6.20
2022-11-17T14:20:43.927Z,8.45
2022-11-17T14:25:50.264Z,6.18
2022-11-17T14:30:54.050Z,6.60
2022-11-17T14:35:58.463Z,6.80
2022-11-17T14:41:00.211Z,7.63
2022-11-17T14:46:02.846Z,6.22
2022-11-17T14:51:04.577Z,7.53
2022-11-17T14:56:09.970Z,4.55
2022-11-17T15:01:15.581Z,5.45
2022-11-17T15:06:20.165Z,5.88
2022-11-17T15:11:22.125Z,7.13
2022-11-17T15:16:23.771Z,6.22
2022-11-17T15:21:25.879Z,7.93
2022-11-17T15:26:27.601Z,7.63
2022-11-17T15:31:29.787Z,6.97
2022-11-17T15:36:32.069Z,7.90
2022-11-17T15:41:33.749Z,6.90
2022-11-17T15:46:35.799Z,7.13
2022-11-17T15:51:37.534Z,5.50
2022-11-17T15:56:39.210Z,7.55
2022-11-17T16:01:41.132Z,6.60
2022-11-17T16:06:44.595Z,5.93
2022-11-17T16:11:46.446Z,5.45
2022-11-17T16:16:48.247Z,7.43
2022-11-17T16:21:50.059Z,7.43
2022-11-17T16:26:51.893Z,7.60
2022-11-17T16:31:55.320Z,7.72
2022-11-17T16:36:56.980Z,9.27
2022-11-17T16:42:00.198Z,9.38
2022-11-17T16:47:01.863Z,9.52
2022-11-17T16:52:03.501Z,8.38
2022-11-17T16:57:05.153Z,8.68
2022-11-17T17:02:06.795Z,10.07
2022-11-17T17:07:08.482Z,10.15
2022-11-17T17:12:10.470Z,8.10
2022-11-17T17:17:12.166Z,8.20
2022-11-17T17:22:13.761Z,12.27
2022-11-17T17:27:15.630Z,11.27
2022-11-17T17:32:17.274Z,8.13
2022-11-17T17:37:18.960Z,7.65
2022-11-17T17:42:20.569Z,11.82
2022-11-17T17:47:23.237Z,7.72
2022-11-17T17:52:24.895Z,7.88
2022-11-17T17:57:29.873Z,10.23
2022-11-17T18:02:34.615Z,8.20
2022-11-17T18:07:36.300Z,7.97
2022-11-17T18:12:38.056Z,9.50
2022-11-17T18:17:39.742Z,8.52
2022-11-17T18:22:41.383Z,7.03
2022-11-17T18:27:43.320Z,9.70
2022-11-17T18:32:45.018Z,11.02
2022-11-17T18:37:46.615Z,10.25
2022-11-17T18:42:48.253Z,10.65
2022-11-17T18:47:49.902Z,9.98
2022-11-17T18:52:52.082Z,8.63
2022-11-17T18:57:53.731Z,9.65
2022-11-17T19:02:55.413Z,11.60
2022-11-17T19:07:57.361Z,8.93
2022-11-17T19:12:58.989Z,12.10
2022-11-17T19:18:00.626Z,9.63
2022-11-17T19:23:02.448Z,10.75
2022-11-17T19:28:04.775Z,9.95
2022-11-17T19:33:06.448Z,12.02
2022-11-17T19:38:08.059Z,11.30
2022-11-17T19:43:09.690Z,10.38
2022-11-17T19:48:11.297Z,11.60
2022-11-17T19:53:12.993Z,11.02
2022-11-17T19:58:16.674Z,10.85
2022-11-17T20:03:18.730Z,11.75
2022-11-17T20:08:20.412Z,12.30
2022-11-17T20:13:22.046Z,10.52
2022-11-17T20:18:23.674Z,10.07
2022-11-17T20:23:25.398Z,11.02
2022-11-17T20:28:27.273Z,12.77
2022-11-17T20:33:30.061Z,10.80
2022-11-17T20:38:32.912Z,14.68
2022-11-17T20:43:35.121Z,11.88
2022-11-17T20:48:36.806Z,12.35
2022-11-17T20:53:39.500Z,13.02
2022-11-17T20:58:41.111Z,14.07
2022-11-17T21:03:42.947Z,14.15
2022-11-17T21:08:45.468Z,18.65
2022-11-17T21:13:47.150Z,13.55
2022-11-17T21:18:48.982Z,14.68
2022-11-17T21:23:54.047Z,16.25
2022-11-17T21:28:57.636Z,14.50
2022-11-17T21:34:04.453Z,15.68
2022-11-17T21:39:06.085Z,16.33
2022-11-17T21:44:07.700Z,15.35
2022-11-17T21:49:09.416Z,17.27
2022-11-17T21:54:11.088Z,17.70
2022-11-17T21:59:13.344Z,15.02
2022-11-17T22:04:15.854Z,19.77
2022-11-17T22:09:17.694Z,16.80
2022-11-17T22:14:20.288Z,22.23
2022-11-17T22:19:24.162Z,17.90
2022-11-17T22:24:25.985Z,21.48
2022-11-17T22:29:27.914Z,19.23
2022-11-17T22:34:29.582Z,18.77
2022-11-17T22:39:31.203Z,19.65
2022-11-17T22:44:32.835Z,19.83
2022-11-17T22:49:34.459Z,19.60
2022-11-17T22:54:36.118Z,20.70
2022-11-17T22:59:37.810Z,20.42
2022-11-17T23:04:39.539Z,19.17
2022-11-17T23:09:41.140Z,20.02
2022-11-17T23:14:42.749Z,23.15
2022-11-17T23:19:44.406Z,21.63
2022-11-17T23:24:46.088Z,20.00
2022-11-17T23:29:47.805Z,20.23
2022-11-17T23:34:49.417Z,19.70
2022-11-17T23:39:51.047Z,22.45
2022-11-17T23:44:52.721Z,20.58
2022-11-17T23:49:54.346Z,20.92
2022-11-17T23:54:55.960Z,20.30
2022-11-17T23:59:57.570Z,18.63
